Midnight Dream — 3EKF5 — position and weather

sailwx.info

Track history (hours):
 
Tides and Currents Weather Stations Pressure Air Temp Water Temp Dewpoint Dewpoint Depression Visibility Wind Speed Wind Dir Waves Ship Positions

Midnight Dream

Last reported at 2016-Jul-27 00:19 UTC. Time now 2016-Jul-27 05:50 UTC.
Position N 17°44' W 063°12'.

Length 90 m; draft 4.5 m.

Type: Cargo ship. MMSI: 372708000.

Date/timePositionNaut miles runAvg speedWind from/ knotsBaromVisibWave heightAir tempDewpointWater temp
2016-Jul-27 00:19N 17°44' W 063°12'37 9.6
2016-Jul-26 20:25N 17°28' W 062°36'8 9.5
2016-Jul-26 19:33N 17°25' W 062°28'1010.0
2016-Jul-26 18:33N 17°21' W 062°19'1010.3
2016-Jul-26 17:33N 17°16' W 062°09'1010.2
2016-Jul-26 16:33N 17°12' W 061°59'9 9.0
2016-Jul-26 15:33N 17°07' W 061°51'0 0.1
2016-Jul-26 14:33N 17°07' W 061°51'0 0.0
2016-Jul-26 13:27N 17°07' W 061°51'0 0.0
2016-Jul-26 12:33N 17°07' W 061°51'0 0.0
2016-Jul-26 11:33N 17°07' W 061°51'2 2.3
2016-Jul-26 10:34N 17°08' W 061°53'5 5.3
2016-Jul-26 09:34N 17°08' W 061°59'6 6.0
2016-Jul-26 08:34N 17°08' W 062°05'71 6.3
2016-Jul-25 21:24N 17°39' W 063°11'10211.6
2016-Jul-25 12:33N 18°17' W 064°52'3 0.1
2016-Jul-24 10:12N 18°18' W 064°55'9 9.4
2016-Jul-24 09:18N 18°17' W 064°46'8 8.9
2016-Jul-24 08:26N 18°20' W 064°38'  
2016-Jul-20 22:13N 18°25' W 064°36'1 1.1
2016-Jul-20 21:25N 18°24' W 064°35'0 0.0
2016-Jul-20 20:28N 18°24' W 064°35'0 0.0
2016-Jul-20 19:28N 18°24' W 064°35'0 0.0
2016-Jul-20 18:04N 18°24' W 064°35'0 0.0
2016-Jul-20 16:31N 18°24' W 064°35'0 0.0
2016-Jul-20 14:22N 18°24' W 064°35'157 9.8
2016-Jul-19 22:20N 16°58' W 062°18'810.3
2016-Jul-19 21:33N 16°51' W 062°14'3 3.0
2016-Jul-19 20:29N 16°48' W 062°12'0 0.0
2016-Jul-19 19:26N 16°48' W 062°12'3 3.0
2016-Jul-19 18:33N 16°51' W 062°11'10 9.6
2016-Jul-19 17:33N 16°58' W 062°05'10 9.8
2016-Jul-19 16:33N 17°05' W 061°58'7 6.1
2016-Jul-19 15:28N 17°07' W 061°51'0 0.0
2016-Jul-19 14:31N 17°07' W 061°51'0 0.0
2016-Jul-19 13:31N 17°07' W 061°51'0 0.0
2016-Jul-19 12:31N 17°07' W 061°51'0 0.0
2016-Jul-19 11:31N 17°07' W 061°51'0 0.1
2016-Jul-19 10:34N 17°07' W 061°51'7 7.1
2016-Jul-19 09:34N 17°10' W 061°58'7 7.0
2016-Jul-19 08:33N 17°09' W 062°05'83 7.3
2016-Jul-18 21:10N 17°48' W 063°22'8610.8
2016-Jul-18 13:11N 18°16' W 064°48'  
Track history (hours):
 
Tides and Currents Weather Stations Pressure Air Temp Water Temp Dewpoint Dewpoint Depression Visibility Wind Speed Wind Dir Waves Ship Positions

Midnight Dream

Last reported at 2016-Jul-27 00:19 UTC. Time now 2016-Jul-27 05:50 UTC.
Position N 17°44' W 063°12'.

Length 90 m; draft 4.5 m.

Type: Cargo ship. MMSI: 372708000.

Date/timePositionNaut miles runAvg speedWind from/ knotsBaromVisibWave heightAir tempDewpointWater temp
2016-Jul-27 00:19N 17°44' W 063°12'37 9.6
2016-Jul-26 20:25N 17°28' W 062°36'8 9.5
2016-Jul-26 19:33N 17°25' W 062°28'1010.0
2016-Jul-26 18:33N 17°21' W 062°19'1010.3
2016-Jul-26 17:33N 17°16' W 062°09'1010.2
2016-Jul-26 16:33N 17°12' W 061°59'9 9.0
2016-Jul-26 15:33N 17°07' W 061°51'0 0.1
2016-Jul-26 14:33N 17°07' W 061°51'0 0.0
2016-Jul-26 13:27N 17°07' W 061°51'0 0.0
2016-Jul-26 12:33N 17°07' W 061°51'0 0.0
2016-Jul-26 11:33N 17°07' W 061°51'2 2.3
2016-Jul-26 10:34N 17°08' W 061°53'5 5.3
2016-Jul-26 09:34N 17°08' W 061°59'6 6.0
2016-Jul-26 08:34N 17°08' W 062°05'71 6.3
2016-Jul-25 21:24N 17°39' W 063°11'10211.6
2016-Jul-25 12:33N 18°17' W 064°52'3 0.1
2016-Jul-24 10:12N 18°18' W 064°55'9 9.4
2016-Jul-24 09:18N 18°17' W 064°46'8 8.9
2016-Jul-24 08:26N 18°20' W 064°38'  
2016-Jul-20 22:13N 18°25' W 064°36'1 1.1
2016-Jul-20 21:25N 18°24' W 064°35'0 0.0
2016-Jul-20 20:28N 18°24' W 064°35'0 0.0
2016-Jul-20 19:28N 18°24' W 064°35'0 0.0
2016-Jul-20 18:04N 18°24' W 064°35'0 0.0
2016-Jul-20 16:31N 18°24' W 064°35'0 0.0
2016-Jul-20 14:22N 18°24' W 064°35'157 9.8
2016-Jul-19 22:20N 16°58' W 062°18'810.3
2016-Jul-19 21:33N 16°51' W 062°14'3 3.0
2016-Jul-19 20:29N 16°48' W 062°12'0 0.0
2016-Jul-19 19:26N 16°48' W 062°12'3 3.0
2016-Jul-19 18:33N 16°51' W 062°11'10 9.6
2016-Jul-19 17:33N 16°58' W 062°05'10 9.8
2016-Jul-19 16:33N 17°05' W 061°58'7 6.1
2016-Jul-19 15:28N 17°07' W 061°51'0 0.0
2016-Jul-19 14:31N 17°07' W 061°51'0 0.0
2016-Jul-19 13:31N 17°07' W 061°51'0 0.0
2016-Jul-19 12:31N 17°07' W 061°51'0 0.0
2016-Jul-19 11:31N 17°07' W 061°51'0 0.1
2016-Jul-19 10:34N 17°07' W 061°51'7 7.1
2016-Jul-19 09:34N 17°10' W 061°58'7 7.0
2016-Jul-19 08:33N 17°09' W 062°05'83 7.3
2016-Jul-18 21:10N 17°48' W 063°22'8610.8
2016-Jul-18 13:11N 18°16' W 064°48'  

Dump ship's entire track history